sensor_id;sensor_type;location;lat;lon;timestamp;pressure;altitude;pressure_sealevel;temperature;humidity
74895;BME280;63447;49.446;8.666;2024-01-07T00:02:06;99859.06;;;4.59;100.00
74895;BME280;63447;49.446;8.666;2024-01-07T00:04:31;99868.34;;;4.72;100.00
74895;BME280;63447;49.446;8.666;2024-01-07T00:07:01;99869.69;;;4.61;100.00
74895;BME280;63447;49.446;8.666;2024-01-07T00:09:29;99879.78;;;4.74;100.00
74895;BME280;63447;49.446;8.666;2024-01-07T00:11:54;99884.47;;;4.60;100.00
74895;BME280;63447;49.446;8.666;2024-01-07T00:14:22;99889.72;;;4.56;100.00
74895;BME280;63447;49.446;8.666;2024-01-07T00:16:48;99873.63;;;4.55;100.00
74895;BME280;63447;49.446;8.666;2024-01-07T00:19:15;99870.28;;;4.58;100.00
74895;BME280;63447;49.446;8.666;2024-01-07T00:21:40;99885.25;;;4.74;100.00
74895;BME280;63447;49.446;8.666;2024-01-07T00:24:06;99867.16;;;4.64;100.00
74895;BME280;63447;49.446;8.666;2024-01-07T00:26:33;99878.19;;;4.59;100.00
74895;BME280;63447;49.446;8.666;2024-01-07T00:29:01;99880.63;;;4.61;100.00
74895;BME280;63447;49.446;8.666;2024-01-07T00:31:26;99879.28;;;4.58;100.00
74895;BME280;63447;49.446;8.666;2024-01-07T00:33:51;99892.94;;;4.72;100.00
74895;BME280;63447;49.446;8.666;2024-01-07T00:36:19;99886.47;;;4.54;100.00
74895;BME280;63447;49.446;8.666;2024-01-07T00:38:47;99883.34;;;4.61;100.00
74895;BME280;63447;49.446;8.666;2024-01-07T00:41:19;99895.38;;;4.60;100.00
74895;BME280;63447;49.446;8.666;2024-01-07T00:43:44;99890.53;;;4.57;100.00
74895;BME280;63447;49.446;8.666;2024-01-07T00:46:12;99885.88;;;4.57;100.00
74895;BME280;63447;49.446;8.666;2024-01-07T00:48:39;99897.72;;;4.66;100.00
74895;BME280;63447;49.446;8.666;2024-01-07T00:51:09;99892.97;;;4.58;100.00
74895;BME280;63447;49.446;8.666;2024-01-07T00:53:35;99898.13;;;4.60;100.00
74895;BME280;63447;49.446;8.666;2024-01-07T00:56:03;99906.31;;;4.60;100.00
74895;BME280;63447;49.446;8.666;2024-01-07T00:58:31;99891.03;;;4.31;100.00
74895;BME280;63447;49.446;8.666;2024-01-07T01:00:56;99885.97;;;4.38;100.00
74895;BME280;63447;49.446;8.666;2024-01-07T01:03:24;99885.56;;;4.45;100.00
74895;BME280;63447;49.446;8.666;2024-01-07T01:05:50;99888.72;;;4.38;100.00
74895;BME280;63447;49.446;8.666;2024-01-07T01:08:15;99913.28;;;4.52;100.00
74895;BME280;63447;49.446;8.666;2024-01-07T01:10:40;99891.22;;;4.35;100.00
74895;BME280;63447;49.446;8.666;2024-01-07T01:13:09;99898.91;;;4.47;100.00
74895;BME280;63447;49.446;8.666;2024-01-07T01:15:34;99908.44;;;4.49;100.00
74895;BME280;63447;49.446;8.666;2024-01-07T01:18:01;99909.44;;;4.53;100.00
74895;BME280;63447;49.446;8.666;2024-01-07T01:20:29;99911.88;;;4.55;100.00
74895;BME280;63447;49.446;8.666;2024-01-07T01:22:55;99915.81;;;4.49;100.00
74895;BME280;63447;49.446;8.666;2024-01-07T01:25:20;99914.28;;;4.42;100.00
74895;BME280;63447;49.446;8.666;2024-01-07T01:27:50;99910.34;;;4.49;100.00
74895;BME280;63447;49.446;8.666;2024-01-07T01:30:18;99924.91;;;4.44;100.00
74895;BME280;63447;49.446;8.666;2024-01-07T01:32:48;99917.94;;;4.38;100.00
74895;BME280;63447;49.446;8.666;2024-01-07T01:35:13;99928.28;;;4.41;100.00
74895;BME280;63447;49.446;8.666;2024-01-07T01:37:38;99918.84;;;4.47;100.00
74895;BME280;63447;49.446;8.666;2024-01-07T01:40:04;99924.41;;;4.42;100.00
74895;BME280;63447;49.446;8.666;2024-01-07T01:42:32;99926.84;;;4.43;100.00
74895;BME280;63447;49.446;8.666;2024-01-07T01:44:57;99929.69;;;4.38;100.00
74895;BME280;63447;49.446;8.666;2024-01-07T01:47:26;99927.25;;;4.37;100.00
74895;BME280;63447;49.446;8.666;2024-01-07T01:49:54;99931.19;;;4.44;100.00
74895;BME280;63447;49.446;8.666;2024-01-07T01:52:20;99926.34;;;4.41;100.00
74895;BME280;63447;49.446;8.666;2024-01-07T01:54:46;99918.84;;;4.33;100.00
74895;BME280;63447;49.446;8.666;2024-01-07T01:57:16;99930.28;;;4.35;100.00
74895;BME280;63447;49.446;8.666;2024-01-07T01:59:42;99933.72;;;4.41;100.00
74895;BME280;63447;49.446;8.666;2024-01-07T02:02:11;99931.91;;;4.36;100.00
74895;BME280;63447;49.446;8.666;2024-01-07T02:04:38;99920.13;;;4.22;100.00
74895;BME280;63447;49.446;8.666;2024-01-07T02:07:04;99929.03;;;4.28;100.00
74895;BME280;63447;49.446;8.666;2024-01-07T02:09:29;99930.50;;;4.39;100.00
74895;BME280;63447;49.446;8.666;2024-01-07T02:12:04;99935.66;;;4.40;100.00
74895;BME280;63447;49.446;8.666;2024-01-07T02:14:30;99922.19;;;4.30;100.00
74895;BME280;63447;49.446;8.666;2024-01-07T02:16:58;99934.50;;;4.28;100.00
74895;BME280;63447;49.446;8.666;2024-01-07T02:19:25;99943.03;;;4.40;100.00
74895;BME280;63447;49.446;8.666;2024-01-07T02:21:51;99940.00;;;4.41;100.00
74895;BME280;63447;49.446;8.666;2024-01-07T02:24:17;99931.91;;;4.50;100.00
74895;BME280;63447;49.446;8.666;2024-01-07T02:26:42;99933.09;;;4.44;100.00
74895;BME280;63447;49.446;8.666;2024-01-07T02:29:08;99939.78;;;4.52;100.00
74895;BME280;63447;49.446;8.666;2024-01-07T02:31:33;99937.56;;;4.54;100.00
74895;BME280;63447;49.446;8.666;2024-01-07T02:33:58;99936.25;;;4.51;100.00
74895;BME280;63447;49.446;8.666;2024-01-07T02:36:23;99931.59;;;4.52;100.00
74895;BME280;63447;49.446;8.666;2024-01-07T02:38:51;99939.78;;;4.52;100.00
74895;BME280;63447;49.446;8.666;2024-01-07T02:41:16;99937.97;;;4.47;100.00
74895;BME280;63447;49.446;8.666;2024-01-07T02:43:42;99930.28;;;4.49;100.00
74895;BME280;63447;49.446;8.666;2024-01-07T02:46:08;99922.81;;;4.41;100.00
74895;BME280;63447;49.446;8.666;2024-01-07T02:48:33;99931.19;;;4.44;100.00
74895;BME280;63447;49.446;8.666;2024-01-07T02:51:00;99932.28;;;4.43;100.00
74895;BME280;63447;49.446;8.666;2024-01-07T02:53:26;99932.59;;;4.42;100.00
74895;BME280;63447;49.446;8.666;2024-01-07T02:55:53;99938.88;;;4.42;100.00
74895;BME280;63447;49.446;8.666;2024-01-07T02:58:18;99929.09;;;4.41;100.00
74895;BME280;63447;49.446;8.666;2024-01-07T03:00:44;99928.28;;;4.41;100.00
74895;BME280;63447;49.446;8.666;2024-01-07T03:03:09;99941.81;;;4.46;100.00
74895;BME280;63447;49.446;8.666;2024-01-07T03:05:34;99941.50;;;4.48;100.00
74895;BME280;63447;49.446;8.666;2024-01-07T03:08:00;99939.59;;;4.48;100.00
74895;BME280;63447;49.446;8.666;2024-01-07T03:10:25;99939.69;;;4.43;100.00
74895;BME280;63447;49.446;8.666;2024-01-07T03:12:50;99939.78;;;4.38;100.00
74895;BME280;63447;49.446;8.666;2024-01-07T03:15:18;99942.22;;;4.39;100.00
74895;BME280;63447;49.446;8.666;2024-01-07T03:17:44;99907.19;;;4.14;100.00
74895;BME280;63447;49.446;8.666;2024-01-07T03:20:09;99939.28;;;4.36;100.00
74895;BME280;63447;49.446;8.666;2024-01-07T03:22:35;99944.44;;;4.37;100.00
74895;BME280;63447;49.446;8.666;2024-01-07T03:25:00;99942.31;;;4.34;100.00
74895;BME280;63447;49.446;8.666;2024-01-07T03:27:28;99952.13;;;4.35;100.00
74895;BME280;63447;49.446;8.666;2024-01-07T03:29:53;99949.69;;;4.34;100.00
74895;BME280;63447;49.446;8.666;2024-01-07T03:32:19;99919.91;;;4.19;100.00
74895;BME280;63447;49.446;8.666;2024-01-07T03:34:44;99951.31;;;4.35;100.00
74895;BME280;63447;49.446;8.666;2024-01-07T03:37:09;99923.16;;;4.21;100.00
74895;BME280;63447;49.446;8.666;2024-01-07T03:39:35;99954.56;;;4.37;100.00
74895;BME280;63447;49.446;8.666;2024-01-07T03:42:00;99947.47;;;4.36;100.00
74895;BME280;63447;49.446;8.666;2024-01-07T03:44:26;99950.00;;;4.32;100.00
74895;BME280;63447;49.446;8.666;2024-01-07T03:46:53;99948.28;;;4.36;100.00
74895;BME280;63447;49.446;8.666;2024-01-07T03:49:21;99957.28;;;4.37;100.00
74895;BME280;63447;49.446;8.666;2024-01-07T03:51:48;99951.53;;;4.38;100.00
74895;BME280;63447;49.446;8.666;2024-01-07T03:54:13;99961.13;;;4.36;100.00
74895;BME280;63447;49.446;8.666;2024-01-07T03:56:39;99954.94;;;4.30;100.00
74895;BME280;63447;49.446;8.666;2024-01-07T03:59:04;99962.53;;;4.33;100.00
74895;BME280;63447;49.446;8.666;2024-01-07T04:01:29;99961.13;;;4.36;100.00
74895;BME280;63447;49.446;8.666;2024-01-07T04:03:55;99955.38;;;4.37;100.00
74895;BME280;63447;49.446;8.666;2024-01-07T04:06:25;99959.00;;;4.33;100.00
74895;BME280;63447;49.446;8.666;2024-01-07T04:08:50;99953.13;;;4.26;100.00
74895;BME280;63447;49.446;8.666;2024-01-07T04:11:18;99955.16;;;4.34;100.00
74895;BME280;63447;49.446;8.666;2024-01-07T04:13:43;99961.72;;;4.33;100.00
74895;BME280;63447;49.446;8.666;2024-01-07T04:16:18;99977.81;;;4.34;100.00
74895;BME280;63447;49.446;8.666;2024-01-07T04:18:43;99973.47;;;4.33;100.00
74895;BME280;63447;49.446;8.666;2024-01-07T04:21:12;99966.25;;;4.24;100.00
74895;BME280;63447;49.446;8.666;2024-01-07T04:23:38;99973.63;;;4.23;100.00
74895;BME280;63447;49.446;8.666;2024-01-07T04:26:09;99962.28;;;4.16;100.00
74895;BME280;63447;49.446;8.666;2024-01-07T04:28:34;99978.78;;;4.25;100.00
74895;BME280;63447;49.446;8.666;2024-01-07T04:31:00;99971.19;;;4.22;100.00
74895;BME280;63447;49.446;8.666;2024-01-07T04:33:27;99972.91;;;4.18;100.00
74895;BME280;63447;49.446;8.666;2024-01-07T04:35:53;99979.00;;;4.28;100.00
74895;BME280;63447;49.446;8.666;2024-01-07T04:38:23;99973.94;;;4.22;100.00
74895;BME280;63447;49.446;8.666;2024-01-07T04:40:48;99985.00;;;4.30;100.00
74895;BME280;63447;49.446;8.666;2024-01-07T04:43:14;99982.25;;;4.30;100.00
74895;BME280;63447;49.446;8.666;2024-01-07T04:45:39;99992.16;;;4.26;100.00
74895;BME280;63447;49.446;8.666;2024-01-07T04:48:05;99986.69;;;4.26;100.00
74895;BME280;63447;49.446;8.666;2024-01-07T04:50:30;99988.53;;;4.31;100.00
74895;BME280;63447;49.446;8.666;2024-01-07T04:52:57;99990.97;;;4.32;100.00
74895;BME280;63447;49.446;8.666;2024-01-07T04:55:25;99995.03;;;4.35;100.00
74895;BME280;63447;49.446;8.666;2024-01-07T04:57:52;99991.34;;;4.26;100.00
74895;BME280;63447;49.446;8.666;2024-01-07T05:00:18;99996.44;;;4.32;100.00
74895;BME280;63447;49.446;8.666;2024-01-07T05:02:43;99996.44;;;4.32;100.00
74895;BME280;63447;49.446;8.666;2024-01-07T05:05:09;99993.41;;;4.34;100.00
74895;BME280;63447;49.446;8.666;2024-01-07T05:07:34;100001.50;;;4.39;100.00
74895;BME280;63447;49.446;8.666;2024-01-07T05:09:59;100003.44;;;4.38;100.00
74895;BME280;63447;49.446;8.666;2024-01-07T05:12:28;100002.91;;;4.36;100.00
74895;BME280;63447;49.446;8.666;2024-01-07T05:14:59;99999.25;;;4.27;100.00
74895;BME280;63447;49.446;8.666;2024-01-07T05:17:25;100009.19;;;4.37;100.00
74895;BME280;63447;49.446;8.666;2024-01-07T05:19:50;100017.09;;;4.38;100.00
74895;BME280;63447;49.446;8.666;2024-01-07T05:22:15;100017.38;;;4.37;100.00
74895;BME280;63447;49.446;8.666;2024-01-07T05:24:41;100019.81;;;4.38;100.00
74895;BME280;63447;49.446;8.666;2024-01-07T05:27:06;100010.91;;;4.33;100.00
74895;BME280;63447;49.446;8.666;2024-01-07T05:29:32;100021.63;;;4.43;100.00
74895;BME280;63447;49.446;8.666;2024-01-07T05:32:00;100028.81;;;4.39;100.00
74895;BME280;63447;49.446;8.666;2024-01-07T05:34:28;100024.25;;;4.34;100.00
74895;BME280;63447;49.446;8.666;2024-01-07T05:36:54;100028.59;;;4.35;100.00
74895;BME280;63447;49.446;8.666;2024-01-07T05:39:19;100028.31;;;4.37;100.00
74895;BME280;63447;49.446;8.666;2024-01-07T05:41:46;100036.88;;;4.30;100.00
74895;BME280;63447;49.446;8.666;2024-01-07T05:44:12;100034.66;;;4.32;100.00
74895;BME280;63447;49.446;8.666;2024-01-07T05:46:40;100030.38;;;4.26;100.00
74895;BME280;63447;49.446;8.666;2024-01-07T05:49:06;100023.91;;;4.22;100.00
74895;BME280;63447;49.446;8.666;2024-01-07T05:51:32;100036.44;;;4.23;100.00
74895;BME280;63447;49.446;8.666;2024-01-07T05:53:57;100033.63;;;4.28;100.00
74895;BME280;63447;49.446;8.666;2024-01-07T05:56:22;100030.97;;;4.23;100.00
74895;BME280;63447;49.446;8.666;2024-01-07T05:58:47;100040.72;;;4.29;100.00
74895;BME280;63447;49.446;8.666;2024-01-07T06:01:18;100047.59;;;4.27;100.00
74895;BME280;63447;49.446;8.666;2024-01-07T06:03:44;100039.13;;;4.09;100.00
74895;BME280;63447;49.446;8.666;2024-01-07T06:06:09;100041.47;;;4.16;100.00
74895;BME280;63447;49.446;8.666;2024-01-07T06:08:34;100057.47;;;4.23;100.00
74895;BME280;63447;49.446;8.666;2024-01-07T06:10:59;100056.66;;;4.22;100.00
74895;BME280;63447;49.446;8.666;2024-01-07T06:13:25;100052.00;;;4.23;100.00
74895;BME280;63447;49.446;8.666;2024-01-07T06:15:52;100036.81;;;4.17;100.00
74895;BME280;63447;49.446;8.666;2024-01-07T06:18:17;100062.34;;;4.26;100.00
74895;BME280;63447;49.446;8.666;2024-01-07T06:20:42;100060.13;;;4.28;100.00
74895;BME280;63447;49.446;8.666;2024-01-07T06:23:08;100057.91;;;4.30;100.00
74895;BME280;63447;49.446;8.666;2024-01-07T06:25:33;100062.56;;;4.29;100.00
74895;BME280;63447;49.446;8.666;2024-01-07T06:27:58;100041.91;;;4.23;100.00
74895;BME280;63447;49.446;8.666;2024-01-07T06:30:24;100063.59;;;4.33;100.00
74895;BME280;63447;49.446;8.666;2024-01-07T06:32:52;100065.00;;;4.31;100.00
74895;BME280;63447;49.446;8.666;2024-01-07T06:35:18;100073.56;;;4.24;100.00
74895;BME280;63447;49.446;8.666;2024-01-07T06:37:52;100082.63;;;4.20;100.00
74895;BME280;63447;49.446;8.666;2024-01-07T06:40:17;100047.25;;;3.96;100.00
74895;BME280;63447;49.446;8.666;2024-01-07T06:42:42;100080.59;;;4.12;100.00
74895;BME280;63447;49.446;8.666;2024-01-07T06:45:09;100086.34;;;4.10;100.00
74895;BME280;63447;49.446;8.666;2024-01-07T06:47:34;100091.75;;;4.15;100.00
74895;BME280;63447;49.446;8.666;2024-01-07T06:50:00;100091.13;;;4.18;100.00
74895;BME280;63447;49.446;8.666;2024-01-07T06:52:29;100084.84;;;4.18;100.00
74895;BME280;63447;49.446;8.666;2024-01-07T06:54:55;100103.97;;;4.18;100.00
74895;BME280;63447;49.446;8.666;2024-01-07T06:57:20;100102.56;;;4.20;100.00
74895;BME280;63447;49.446;8.666;2024-01-07T06:59:46;100103.97;;;4.18;100.00
74895;BME280;63447;49.446;8.666;2024-01-07T07:02:13;100108.03;;;4.20;100.00
74895;BME280;63447;49.446;8.666;2024-01-07T07:04:39;100114.75;;;4.28;100.00
74895;BME280;63447;49.446;8.666;2024-01-07T07:07:07;100105.22;;;4.25;100.00
74895;BME280;63447;49.446;8.666;2024-01-07T07:09:34;100116.22;;;4.39;100.00
74895;BME280;63447;49.446;8.666;2024-01-07T07:12:02;100122.34;;;4.31;100.00
74895;BME280;63447;49.446;8.666;2024-01-07T07:14:27;100050.03;;;3.91;100.00
74895;BME280;63447;49.446;8.666;2024-01-07T07:16:55;100121.97;;;4.37;100.00
74895;BME280;63447;49.446;8.666;2024-01-07T07:19:20;100132.31;;;4.40;100.00
74895;BME280;63447;49.446;8.666;2024-01-07T07:21:48;100132.31;;;4.40;100.00
74895;BME280;63447;49.446;8.666;2024-01-07T07:24:13;100138.38;;;4.37;100.00
74895;BME280;63447;49.446;8.666;2024-01-07T07:26:38;100141.41;;;4.36;100.00
74895;BME280;63447;49.446;8.666;2024-01-07T07:29:09;100128.34;;;4.33;100.00
74895;BME280;63447;49.446;8.666;2024-01-07T07:31:35;100149.81;;;4.39;100.00
74895;BME280;63447;49.446;8.666;2024-01-07T07:34:03;100142.88;;;4.28;100.00
74895;BME280;63447;49.446;8.666;2024-01-07T07:36:31;100142.88;;;4.28;100.00
74895;BME280;63447;49.446;8.666;2024-01-07T07:38:57;100158.09;;;4.34;100.00
74895;BME280;63447;49.446;8.666;2024-01-07T07:41:24;100165.41;;;4.39;100.00
74895;BME280;63447;49.446;8.666;2024-01-07T07:43:50;100161.91;;;4.33;100.00
74895;BME280;63447;49.446;8.666;2024-01-07T07:46:15;100164.34;;;4.35;100.00
74895;BME280;63447;49.446;8.666;2024-01-07T07:48:41;100169.81;;;4.35;100.00
74895;BME280;63447;49.446;8.666;2024-01-07T07:51:06;100175.00;;;4.36;100.00
74895;BME280;63447;49.446;8.666;2024-01-07T07:53:37;100173.38;;;4.35;100.00
74895;BME280;63447;49.446;8.666;2024-01-07T07:56:04;100172.25;;;4.36;100.00
74895;BME280;63447;49.446;8.666;2024-01-07T07:58:32;100175.69;;;4.42;100.00
74895;BME280;63447;49.446;8.666;2024-01-07T08:01:02;100180.28;;;4.47;100.00
74895;BME280;63447;49.446;8.666;2024-01-07T08:03:27;100184.22;;;4.40;100.00
74895;BME280;63447;49.446;8.666;2024-01-07T08:05:53;100176.84;;;4.41;100.00
74895;BME280;63447;49.446;8.666;2024-01-07T08:08:18;100177.78;;;4.31;100.00
74895;BME280;63447;49.446;8.666;2024-01-07T08:10:43;100188.06;;;4.39;100.00
74895;BME280;63447;49.446;8.666;2024-01-07T08:13:08;100185.91;;;4.36;100.00
74895;BME280;63447;49.446;8.666;2024-01-07T08:15:34;100184.81;;;4.37;100.00
74895;BME280;63447;49.446;8.666;2024-01-07T08:17:59;100183.84;;;4.28;100.00
74895;BME280;63447;49.446;8.666;2024-01-07T08:20:25;100190.78;;;4.39;100.00
74895;BME280;63447;49.446;8.666;2024-01-07T08:22:50;100176.75;;;4.46;100.00
74895;BME280;63447;49.446;8.666;2024-01-07T08:25:16;100195.78;;;4.51;100.00
74895;BME280;63447;49.446;8.666;2024-01-07T08:27:41;100194.47;;;4.49;100.00
74895;BME280;63447;49.446;8.666;2024-01-07T08:30:09;100200.81;;;4.44;100.00
74895;BME280;63447;49.446;8.666;2024-01-07T08:32:39;100197.88;;;4.40;100.00
74895;BME280;63447;49.446;8.666;2024-01-07T08:35:05;100191.66;;;4.35;100.00
74895;BME280;63447;49.446;8.666;2024-01-07T08:37:30;100207.69;;;4.41;100.00
74895;BME280;63447;49.446;8.666;2024-01-07T08:39:56;100202.00;;;4.38;100.00
74895;BME280;63447;49.446;8.666;2024-01-07T08:42:24;100214.41;;;4.49;100.00
74895;BME280;63447;49.446;8.666;2024-01-07T08:44:54;100210.34;;;4.47;100.00
74895;BME280;63447;49.446;8.666;2024-01-07T08:47:22;100209.03;;;4.63;100.00
74895;BME280;63447;49.446;8.666;2024-01-07T08:49:50;100206.50;;;4.66;100.00
74895;BME280;63447;49.446;8.666;2024-01-07T08:52:21;100224.06;;;4.79;100.00
74895;BME280;63447;49.446;8.666;2024-01-07T08:54:46;100212.03;;;4.61;100.00
74895;BME280;63447;49.446;8.666;2024-01-07T08:57:11;100189.06;;;4.43;100.00
74895;BME280;63447;49.446;8.666;2024-01-07T08:59:39;100233.50;;;4.68;100.00
74895;BME280;63447;49.446;8.666;2024-01-07T09:02:04;100239.38;;;4.61;100.00
74895;BME280;63447;49.446;8.666;2024-01-07T09:04:30;100246.59;;;4.52;100.00
74895;BME280;63447;49.446;8.666;2024-01-07T09:06:55;100250.44;;;4.51;100.00
74895;BME280;63447;49.446;8.666;2024-01-07T09:09:21;100248.59;;;4.65;100.00
74895;BME280;63447;49.446;8.666;2024-01-07T09:11:46;100253.16;;;4.70;100.00
74895;BME280;63447;49.446;8.666;2024-01-07T09:14:11;100245.56;;;4.48;100.00
74895;BME280;63447;49.446;8.666;2024-01-07T09:16:36;100249.53;;;4.37;100.00
74895;BME280;63447;49.446;8.666;2024-01-07T09:19:02;100272.00;;;4.53;100.00
74895;BME280;63447;49.446;8.666;2024-01-07T09:21:27;100272.88;;;4.48;100.00
74895;BME280;63447;49.446;8.666;2024-01-07T09:23:52;100273.59;;;4.35;100.00
74895;BME280;63447;49.446;8.666;2024-01-07T09:26:18;100260.19;;;4.38;100.00
74895;BME280;63447;49.446;8.666;2024-01-07T09:28:43;100276.34;;;4.54;99.28
74895;BME280;63447;49.446;8.666;2024-01-07T09:31:09;100271.34;;;4.80;100.00
74895;BME280;63447;49.446;8.666;2024-01-07T09:33:34;100268.47;;;4.90;98.06
74895;BME280;63447;49.446;8.666;2024-01-07T09:35:59;100271.00;;;4.67;94.61
74895;BME280;63447;49.446;8.666;2024-01-07T09:38:27;100287.91;;;4.88;96.60
74895;BME280;63447;49.446;8.666;2024-01-07T09:40:55;100290.75;;;4.97;95.27
74895;BME280;63447;49.446;8.666;2024-01-07T09:43:20;100277.69;;;4.75;93.64
74895;BME280;63447;49.446;8.666;2024-01-07T09:45:46;100296.53;;;4.58;91.69
74895;BME280;63447;49.446;8.666;2024-01-07T09:48:14;100282.28;;;4.80;91.91
74895;BME280;63447;49.446;8.666;2024-01-07T09:50:44;100279.75;;;4.83;90.52
74895;BME280;63447;49.446;8.666;2024-01-07T09:53:20;100285.88;;;4.94;88.03
74895;BME280;63447;49.446;8.666;2024-01-07T09:55:58;100283.97;;;4.75;89.13
74895;BME280;63447;49.446;8.666;2024-01-07T09:58:31;100295.19;;;4.74;86.46
74895;BME280;63447;49.446;8.666;2024-01-07T10:00:56;100278.88;;;4.69;86.83
74895;BME280;63447;49.446;8.666;2024-01-07T10:03:27;100293.84;;;4.71;87.45
74895;BME280;63447;49.446;8.666;2024-01-07T10:05:55;100274.72;;;4.71;88.90
74895;BME280;63447;49.446;8.666;2024-01-07T10:08:24;100295.41;;;4.77;88.99
74895;BME280;63447;49.446;8.666;2024-01-07T10:10:54;100277.44;;;5.09;94.27
74895;BME280;63447;49.446;8.666;2024-01-07T10:13:24;100271.91;;;4.95;89.07
74895;BME280;63447;49.446;8.666;2024-01-07T10:15:52;100296.88;;;4.70;89.71
74895;BME280;63447;49.446;8.666;2024-01-07T10:18:18;100281.47;;;4.60;90.18
74895;BME280;63447;49.446;8.666;2024-01-07T10:20:46;100292.97;;;4.57;90.17
74895;BME280;63447;49.446;8.666;2024-01-07T10:23:11;100294.66;;;4.34;88.67
74895;BME280;63447;49.446;8.666;2024-01-07T10:25:39;100297.75;;;4.47;89.65
74895;BME280;63447;49.446;8.666;2024-01-07T10:28:05;100302.50;;;4.60;88.57
74895;BME280;63447;49.446;8.666;2024-01-07T10:30:30;100298.28;;;4.49;89.58
74895;BME280;63447;49.446;8.666;2024-01-07T10:32:57;100310.78;;;4.55;90.43
74895;BME280;63447;49.446;8.666;2024-01-07T10:35:28;100286.09;;;4.41;88.57
74895;BME280;63447;49.446;8.666;2024-01-07T10:37:54;100297.97;;;4.50;87.38
74895;BME280;63447;49.446;8.666;2024-01-07T10:40:23;100310.53;;;4.51;85.76
74895;BME280;63447;49.446;8.666;2024-01-07T10:42:53;100312.56;;;4.64;86.80
74895;BME280;63447;49.446;8.666;2024-01-07T10:45:19;100265.06;;;4.41;86.86
74895;BME280;63447;49.446;8.666;2024-01-07T10:47:48;100325.31;;;4.69;86.87
74895;BME280;63447;49.446;8.666;2024-01-07T10:50:34;100322.16;;;4.81;85.26
74895;BME280;63447;49.446;8.666;2024-01-07T10:53:03;100324.38;;;4.78;84.15
74895;BME280;63447;49.446;8.666;2024-01-07T10:55:34;100315.19;;;4.69;83.95
74895;BME280;63447;49.446;8.666;2024-01-07T10:58:03;100336.66;;;4.81;83.66
74895;BME280;63447;49.446;8.666;2024-01-07T11:00:34;100317.50;;;4.81;80.87
74895;BME280;63447;49.446;8.666;2024-01-07T11:03:27;100316.03;;;4.89;82.01
74895;BME280;63447;49.446;8.666;2024-01-07T11:06:08;100311.00;;;4.58;83.18
74895;BME280;63447;49.446;8.666;2024-01-07T11:08:46;100309.25;;;4.86;82.24
74895;BME280;63447;49.446;8.666;2024-01-07T11:11:22;100305.22;;;4.97;81.48
74895;BME280;63447;49.446;8.666;2024-01-07T11:13:50;100319.84;;;5.25;79.95
74895;BME280;63447;49.446;8.666;2024-01-07T11:16:47;100321.19;;;5.28;83.29
74895;BME280;63447;49.446;8.666;2024-01-07T11:19:15;100328.94;;;5.21;83.14
74895;BME280;63447;49.446;8.666;2024-01-07T11:21:47;100320.63;;;4.93;84.93
74895;BME280;63447;49.446;8.666;2024-01-07T11:24:38;100320.69;;;4.88;85.68
74895;BME280;63447;49.446;8.666;2024-01-07T11:27:03;100327.75;;;4.70;83.88
74895;BME280;63447;49.446;8.666;2024-01-07T11:29:33;100321.34;;;4.61;84.38
74895;BME280;63447;49.446;8.666;2024-01-07T11:32:01;100332.63;;;4.55;85.16
74895;BME280;63447;49.446;8.666;2024-01-07T11:34:42;100332.03;;;4.39;85.91
74895;BME280;63447;49.446;8.666;2024-01-07T11:37:13;100321.50;;;4.27;85.05
74895;BME280;63447;49.446;8.666;2024-01-07T11:39:39;100331.72;;;4.17;85.00
74895;BME280;63447;49.446;8.666;2024-01-07T11:42:09;100315.16;;;4.08;88.08
74895;BME280;63447;49.446;8.666;2024-01-07T11:44:34;100333.63;;;4.16;86.75
74895;BME280;63447;49.446;8.666;2024-01-07T11:47:05;100330.16;;;3.87;85.96
74895;BME280;63447;49.446;8.666;2024-01-07T11:49:33;100336.94;;;3.89;85.61
74895;BME280;63447;49.446;8.666;2024-01-07T11:52:04;100331.81;;;3.83;85.23
74895;BME280;63447;49.446;8.666;2024-01-07T11:54:32;100343.22;;;3.90;83.89
74895;BME280;63447;49.446;8.666;2024-01-07T11:57:03;100334.03;;;3.81;85.04
74895;BME280;63447;49.446;8.666;2024-01-07T11:59:29;100335.41;;;3.78;85.10
74895;BME280;63447;49.446;8.666;2024-01-07T12:01:54;100335.41;;;3.78;86.21
74895;BME280;63447;49.446;8.666;2024-01-07T12:04:20;100350.72;;;3.74;86.84
74895;BME280;63447;49.446;8.666;2024-01-07T12:06:47;100343.44;;;3.64;86.32
74895;BME280;63447;49.446;8.666;2024-01-07T12:09:13;100337.59;;;3.47;86.42
74895;BME280;63447;49.446;8.666;2024-01-07T12:11:39;100355.47;;;3.63;86.44
74895;BME280;63447;49.446;8.666;2024-01-07T12:14:13;100359.63;;;3.56;86.49
74895;BME280;63447;49.446;8.666;2024-01-07T12:16:39;100358.00;;;3.55;87.10
74895;BME280;63447;49.446;8.666;2024-01-07T12:19:08;100361.41;;;3.36;87.00
74895;BME280;63447;49.446;8.666;2024-01-07T12:21:36;100358.19;;;3.29;86.46
74895;BME280;63447;49.446;8.666;2024-01-07T12:24:08;100354.56;;;3.39;87.18
74895;BME280;63447;49.446;8.666;2024-01-07T12:26:33;100357.97;;;3.21;87.34
74895;BME280;63447;49.446;8.666;2024-01-07T12:29:02;100359.53;;;3.32;87.36
74895;BME280;63447;49.446;8.666;2024-01-07T12:31:35;100372.94;;;3.28;86.41
74895;BME280;63447;49.446;8.666;2024-01-07T12:34:02;100345.75;;;3.13;86.19
74895;BME280;63447;49.446;8.666;2024-01-07T12:36:30;100337.28;;;3.15;85.74
74895;BME280;63447;49.446;8.666;2024-01-07T12:38:59;100379.75;;;3.26;86.28
74895;BME280;63447;49.446;8.666;2024-01-07T12:41:26;100378.09;;;3.30;85.74
74895;BME280;63447;49.446;8.666;2024-01-07T12:43:54;100373.81;;;3.19;86.21
74895;BME280;63447;49.446;8.666;2024-01-07T12:46:19;100384.97;;;3.17;86.47
74895;BME280;63447;49.446;8.666;2024-01-07T12:48:45;100378.25;;;3.04;85.32
74895;BME280;63447;49.446;8.666;2024-01-07T12:51:10;100380.16;;;3.09;86.26
74895;BME280;63447;49.446;8.666;2024-01-07T12:53:36;100375.78;;;3.08;86.04
74895;BME280;63447;49.446;8.666;2024-01-07T12:56:03;100372.59;;;2.91;85.48
74895;BME280;63447;49.446;8.666;2024-01-07T12:58:31;100368.25;;;2.90;84.91